Current Weather

Half Moon Bay

Half Moon Bay, California (KHAF)

Report from: Wednesday, August 17, 2022 5:35 PM PDT
Current time: Wednesday, August 17, 2022 5:46 PM PDT

Nearby weather
Weather history
Weather forecast

Present weatherMist
Temperature15.0°C (59.0°F)
Dew point15.0°C (59.0°F)
Winds 4 kts (2.1 m/s, 4.6 mph) West-Southwest (240°)
Visibility2 mi. (3.2 km)
Clouds Ceiling: Overcast 300 ft. (91 m)
Altimeter29.92 in.Hg (1013 mB)
Relative humidity100 %
Density altitude237 ft. (72 m)
Remarks Fully automated report
Automated weather observing station with precipitation discriminator
Flight conditions Low Instrument Meteorological Conditions
Raw dataKHAF 180035Z AUTO 24004KT 2SM BR OVC003 15/15 A2992 RMK AO2
An error has occurred. This application may no longer respond until reloaded. Reload 🗙